createdAt,value
2022-12-08T05:29:19.135Z,0.51
2022-12-08T05:35:11.579Z,0.57
2022-12-08T05:41:05.807Z,0.70
2022-12-08T05:46:58.329Z,0.85
2022-12-08T05:52:50.614Z,1.22
2022-12-08T05:58:43.763Z,1.41
2022-12-08T06:04:36.946Z,1.57
2022-12-08T06:10:29.444Z,1.76
2022-12-08T06:16:21.938Z,1.99
2022-12-08T06:22:14.764Z,2.07
2022-12-08T06:28:07.605Z,2.09
2022-12-08T06:34:00.765Z,1.98
2022-12-08T06:39:53.845Z,1.89
2022-12-08T06:45:47.618Z,1.90
2022-12-08T06:51:40.734Z,1.86
2022-12-08T06:57:35.165Z,1.84
2022-12-08T07:03:28.965Z,1.86
2022-12-08T07:09:21.870Z,1.81
2022-12-08T07:15:15.395Z,1.94
2022-12-08T07:21:10.928Z,2.08
2022-12-08T07:27:03.553Z,2.38
2022-12-08T07:32:55.734Z,2.69
2022-12-08T07:38:48.647Z,2.90
2022-12-08T07:44:40.649Z,3.20
2022-12-08T07:50:33.325Z,3.44
2022-12-08T07:56:26.045Z,3.82
2022-12-08T08:02:25.266Z,3.98
2022-12-08T08:08:19.048Z,4.23
2022-12-08T08:14:12.015Z,4.39
2022-12-08T08:20:08.857Z,4.78
2022-12-08T08:26:05.114Z,5.30
2022-12-08T08:31:57.446Z,5.61
2022-12-08T08:37:51.058Z,5.88
2022-12-08T08:43:44.905Z,6.11
2022-12-08T08:49:37.117Z,6.55
2022-12-08T08:55:29.677Z,6.60
2022-12-08T09:01:28.334Z,6.85
2022-12-08T09:07:22.126Z,7.28
2022-12-08T09:13:15.065Z,7.12
2022-12-08T09:19:08.226Z,7.41
2022-12-08T09:25:01.214Z,7.75
2022-12-08T09:30:54.703Z,8.14
2022-12-08T09:36:47.055Z,8.25
2022-12-08T09:43:12.396Z,8.22
2022-12-08T09:49:05.896Z,8.13
2022-12-08T09:55:03.427Z,8.14
2022-12-08T10:00:56.428Z,8.14
2022-12-08T10:06:49.404Z,8.10
2022-12-08T10:13:05.265Z,7.96
2022-12-08T10:19:11.575Z,8.12
2022-12-08T10:25:10.477Z,8.39
2022-12-08T10:31:03.114Z,8.25
2022-12-08T10:36:58.119Z,8.12
2022-12-08T10:42:53.995Z,7.99
2022-12-08T10:48:53.693Z,7.94
2022-12-08T10:54:46.204Z,7.79
2022-12-08T11:00:40.433Z,7.82
2022-12-08T11:06:36.768Z,7.79
2022-12-08T11:12:30.772Z,7.84
2022-12-08T11:18:39.466Z,7.98
2022-12-08T11:24:37.659Z,8.03
2022-12-08T11:30:37.096Z,7.99
2022-12-08T11:36:33.359Z,7.92
2022-12-08T11:42:35.875Z,7.80
2022-12-08T11:49:06.300Z,7.61
2022-12-08T11:55:18.389Z,7.86
2022-12-08T12:01:28.735Z,7.90
2022-12-08T12:07:41.396Z,7.91
2022-12-08T12:13:56.573Z,7.71
2022-12-08T12:19:50.418Z,7.53
2022-12-08T12:25:57.063Z,7.39
2022-12-08T12:31:53.882Z,7.13
2022-12-08T12:37:46.331Z,7.20
2022-12-08T12:43:39.494Z,7.42
2022-12-08T12:49:40.726Z,7.61
2022-12-08T12:55:56.728Z,7.61
2022-12-08T13:01:54.824Z,7.44
2022-12-08T13:07:56.863Z,7.12
2022-12-08T13:14:04.267Z,6.94
2022-12-08T13:20:00.114Z,6.59
2022-12-08T13:26:17.206Z,6.33
2022-12-08T13:32:12.602Z,6.11
2022-12-08T13:38:06.114Z,5.92
2022-12-08T13:57:14.274Z,5.25
2022-12-08T14:03:13.488Z,4.93
2022-12-08T14:09:13.561Z,4.63
2022-12-08T14:15:08.368Z,4.33
2022-12-08T14:21:22.830Z,4.12
2022-12-08T14:27:18.642Z,3.86
2022-12-08T14:33:17.136Z,3.59
2022-12-08T14:39:10.007Z,3.30
2022-12-08T14:45:11.202Z,3.09
2022-12-08T14:51:04.640Z,2.62
2022-12-08T14:56:58.374Z,2.46
2022-12-08T15:02:51.125Z,2.39
2022-12-08T15:08:54.655Z,2.08
2022-12-08T15:15:00.260Z,2.26
2022-12-08T15:21:01.275Z,2.25
2022-12-08T15:26:55.584Z,2.17
2022-12-08T15:32:54.392Z,2.13
2022-12-08T15:38:52.296Z,2.29
2022-12-08T15:44:46.094Z,2.50
2022-12-08T15:50:39.103Z,2.77
2022-12-08T15:56:34.266Z,2.97
2022-12-08T16:02:34.288Z,3.10
2022-12-08T16:08:51.800Z,3.31
2022-12-08T16:21:31.601Z,3.68
2022-12-08T16:33:38.467Z,4.00
2022-12-08T16:39:38.783Z,4.08
2022-12-08T16:45:44.457Z,3.91
2022-12-08T16:51:38.658Z,3.89
2022-12-08T16:57:32.136Z,3.71
2022-12-08T17:03:25.525Z,3.39
2022-12-08T17:09:18.956Z,3.05
2022-12-08T17:15:17.118Z,2.69
2022-12-08T17:21:17.375Z,2.55
2022-12-08T17:27:12.135Z,2.41
2022-12-08T17:33:05.168Z,2.13
2022-12-08T17:39:00.902Z,1.81
2022-12-08T17:44:57.864Z,1.62
2022-12-08T17:50:56.364Z,1.49
2022-12-08T17:56:49.054Z,1.34
2022-12-08T18:02:41.338Z,1.27
2022-12-08T18:08:37.103Z,1.24
2022-12-08T18:14:30.524Z,1.21
2022-12-08T18:20:23.564Z,1.05
2022-12-08T18:26:17.272Z,0.59
2022-12-08T18:32:09.827Z,0.67
2022-12-08T18:38:03.115Z,0.64
2022-12-08T18:43:57.335Z,0.67
2022-12-08T18:49:50.974Z,0.69
2022-12-08T18:55:43.455Z,0.71
2022-12-08T19:01:38.178Z,0.68
2022-12-08T19:07:32.114Z,0.82
2022-12-08T19:13:24.714Z,0.93
2022-12-08T19:19:18.057Z,1.12
2022-12-08T19:25:10.426Z,1.31
2022-12-08T19:31:07.206Z,1.58
2022-12-08T19:36:59.738Z,1.81
2022-12-08T19:43:11.325Z,2.02
2022-12-08T19:49:03.528Z,2.25
2022-12-08T19:54:57.891Z,2.41
2022-12-08T20:00:50.586Z,2.53
2022-12-08T20:06:43.224Z,2.50
2022-12-08T20:12:35.842Z,2.59
2022-12-08T20:18:29.916Z,2.54
2022-12-08T20:24:22.754Z,2.53
2022-12-08T20:30:18.073Z,2.56
2022-12-08T20:36:19.414Z,2.56
2022-12-08T20:42:14.063Z,2.62
2022-12-08T20:48:07.065Z,2.72
2022-12-08T20:54:00.931Z,2.78
2022-12-08T20:59:53.938Z,2.78
2022-12-08T21:05:53.013Z,2.79
2022-12-08T21:11:46.033Z,2.74
2022-12-08T21:17:39.136Z,2.66
2022-12-08T21:23:32.332Z,2.64
2022-12-08T21:29:25.934Z,2.57
2022-12-08T21:35:18.668Z,2.63
2022-12-08T21:41:38.027Z,2.61
2022-12-08T21:47:30.930Z,2.60
2022-12-08T21:53:26.614Z,2.62
2022-12-08T21:59:21.255Z,2.60
2022-12-08T22:05:14.707Z,2.59
2022-12-08T22:11:08.413Z,2.57
2022-12-08T22:17:00.639Z,2.58
2022-12-08T22:22:53.170Z,2.57
2022-12-08T22:28:46.088Z,2.54
2022-12-08T22:34:39.154Z,2.59
2022-12-08T22:40:32.235Z,2.57
2022-12-08T22:46:27.594Z,2.54
2022-12-08T22:52:20.274Z,2.46
2022-12-08T22:58:14.494Z,2.49
2022-12-08T23:04:09.189Z,2.56
2022-12-08T23:10:07.447Z,2.62
2022-12-08T23:16:00.235Z,2.68
2022-12-08T23:21:53.135Z,2.69
2022-12-08T23:27:46.231Z,2.68
2022-12-08T23:33:39.546Z,2.65
2022-12-08T23:39:32.492Z,2.64
2022-12-08T23:45:25.174Z,2.70
2022-12-08T23:51:18.043Z,2.57
2022-12-08T23:57:10.260Z,2.75
